Time;durP1;ratioP1;P1;durP2;ratioP2;P2;SDS_P1;SDS_P2;PMS_P1;PMS_P2;Temp;Humidity;BMP_temperature;BMP_pressure;BME280_temperature;BME280_humidity;BME280_pressure;Samples;Min_cycle;Max_cycle;Signal;HPM_P1;HPM_P2
2023/06/14 00:00:35;;;;;;;5.78;4.20;;;;;;;;;;5004112;28;20037;-62
2023/06/14 00:03:03;;;;;;;7.15;4.38;;;;;;;;;;5002306;28;20032;-62
2023/06/14 00:05:32;;;;;;;6.25;4.35;;;;;;;;;;5003764;28;20686;-62
2023/06/14 00:08:00;;;;;;;5.50;4.15;;;;;;;;;;5009847;28;20038;-63
2023/06/14 00:10:30;;;;;;;7.82;4.38;;;;;;;;;;5004190;28;20122;-62
2023/06/14 00:12:56;;;;;;;8.57;4.20;;;;;;;;;;5001870;28;20045;-62
2023/06/14 00:15:23;;;;;;;6.70;4.65;;;;;;;;;;5007178;28;20053;-62
2023/06/14 00:17:49;;;;;;;11.52;4.50;;;;;;;;;;5008427;28;20038;-63
2023/06/14 00:20:16;;;;;;;6.97;4.55;;;;;;;;;;5010420;28;20046;-62
2023/06/14 00:22:42;;;;;;;6.20;4.10;;;;;;;;;;4998381;28;20526;-62
2023/06/14 00:25:08;;;;;;;5.40;4.07;;;;;;;;;;5000330;28;20046;-63
2023/06/14 00:27:34;;;;;;;6.22;4.50;;;;;;;;;;5005097;28;20523;-62
2023/06/14 00:30:00;;;;;;;5.63;3.92;;;;;;;;;;5004817;28;20037;-62
2023/06/14 00:32:27;;;;;;;7.00;4.22;;;;;;;;;;5005501;28;20038;-62
2023/06/14 00:34:55;;;;;;;5.95;4.32;;;;;;;;;;5008323;28;20220;-63
2023/06/14 00:37:22;;;;;;;7.72;4.00;;;;;;;;;;5005653;28;20614;-62
2023/06/14 00:39:48;;;;;;;7.47;4.20;;;;;;;;;;5013729;28;20033;-62
2023/06/14 00:42:25;;;;;;;7.00;4.60;;;;;;;;;;5008686;28;20060;-62
2023/06/14 00:44:51;;;;;;;10.32;4.53;;;;;;;;;;5013514;28;20050;-62
2023/06/14 00:47:19;;;;;;;6.40;4.20;;;;;;;;;;5007079;28;20038;-62
2023/06/14 00:49:55;;;;;;;6.20;4.38;;;;;;;;;;5003566;28;20038;-62
2023/06/14 00:52:24;;;;;;;5.97;4.13;;;;;;;;;;4999857;28;20038;-62
2023/06/14 00:54:51;;;;;;;6.15;4.15;;;;;;;;;;5009959;28;20064;-62
2023/06/14 00:57:17;;;;;;;7.25;4.13;;;;;;;;;;5014446;28;20136;-62
2023/06/14 00:59:46;;;;;;;7.10;4.30;;;;;;;;;;5006717;28;20049;-62
2023/06/14 01:02:13;;;;;;;6.65;4.50;;;;;;;;;;4993428;28;20045;-62
2023/06/14 01:04:45;;;;;;;6.72;4.30;;;;;;;;;;5025634;28;20046;-62
2023/06/14 01:07:21;;;;;;;5.53;4.32;;;;;;;;;;4997843;28;20030;-62
2023/06/14 01:10:20;;;;;;;7.03;4.07;;;;;;;;;;4988589;28;20044;-62
2023/06/14 01:12:58;;;;;;;5.82;4.40;;;;;;;;;;5002916;28;20034;-61
2023/06/14 01:15:24;;;;;;;6.57;4.00;;;;;;;;;;5001863;28;20056;-61
2023/06/14 01:17:57;;;;;;;5.85;4.40;;;;;;;;;;5000340;28;20060;-61
2023/06/14 01:20:29;;;;;;;5.80;4.00;;;;;;;;;;4998510;28;20034;-62
2023/06/14 01:22:55;;;;;;;6.70;4.50;;;;;;;;;;4993574;28;20050;-63
2023/06/14 01:25:22;;;;;;;7.40;4.18;;;;;;;;;;5001488;28;20446;-62
2023/06/14 01:27:57;;;;;;;5.28;3.90;;;;;;;;;;5012968;28;20044;-62
2023/06/14 01:30:26;;;;;;;5.88;4.63;;;;;;;;;;5010413;28;20038;-61
2023/06/14 01:32:55;;;;;;;6.50;4.03;;;;;;;;;;4998968;28;20428;-62
2023/06/14 01:35:22;;;;;;;5.78;4.05;;;;;;;;;;4983991;28;20522;-62
2023/06/14 01:37:49;;;;;;;9.27;4.20;;;;;;;;;;5003561;28;20042;-61
2023/06/14 01:40:17;;;;;;;6.32;4.20;;;;;;;;;;5004592;28;20648;-62
2023/06/14 01:42:46;;;;;;;5.43;4.22;;;;;;;;;;5007210;28;20538;-62
2023/06/14 01:45:13;;;;;;;7.70;4.53;;;;;;;;;;5005552;28;20042;-62
2023/06/14 01:47:40;;;;;;;5.45;3.40;;;;;;;;;;5004614;28;20042;-62
2023/06/14 01:50:06;;;;;;;6.32;4.10;;;;;;;;;;5003162;28;20041;-61
2023/06/14 01:52:33;;;;;;;5.90;4.13;;;;;;;;;;5010016;28;20042;-61
2023/06/14 01:55:03;;;;;;;5.97;4.18;;;;;;;;;;5002075;28;20031;-61
2023/06/14 01:57:30;;;;;;;5.60;3.92;;;;;;;;;;5002286;28;20049;-60
2023/06/14 01:59:56;;;;;;;4.78;3.80;;;;;;;;;;4990419;28;20038;-61
2023/06/14 02:02:22;;;;;;;9.15;4.38;;;;;;;;;;5002804;28;20419;-61
2023/06/14 02:04:48;;;;;;;9.38;5.18;;;;;;;;;;5001586;28;20030;-61
2023/06/14 02:07:14;;;;;;;6.63;3.95;;;;;;;;;;4999272;28;20503;-61
2023/06/14 02:09:41;;;;;;;7.18;4.32;;;;;;;;;;5010734;28;20046;-60
2023/06/14 02:12:08;;;;;;;6.03;3.92;;;;;;;;;;5021409;28;20039;-61
2023/06/14 02:14:34;;;;;;;6.05;4.25;;;;;;;;;;5000778;28;20656;-61
2023/06/14 02:17:00;;;;;;;5.75;3.88;;;;;;;;;;5004005;28;20061;-62
2023/06/14 02:19:27;;;;;;;5.88;4.13;;;;;;;;;;5005662;28;20030;-60
2023/06/14 02:21:53;;;;;;;8.57;4.10;;;;;;;;;;4994291;28;20518;-62
2023/06/14 02:24:19;;;;;;;6.57;4.13;;;;;;;;;;5000605;28;20034;-62
2023/06/14 02:26:46;;;;;;;6.47;4.40;;;;;;;;;;4994105;28;20044;-61
2023/06/14 02:29:15;;;;;;;6.20;4.00;;;;;;;;;;5000651;28;20026;-62
2023/06/14 02:31:42;;;;;;;6.65;4.22;;;;;;;;;;4982464;28;20038;-61
2023/06/14 02:34:08;;;;;;;7.10;4.25;;;;;;;;;;4997575;28;20466;-62
2023/06/14 02:36:41;;;;;;;7.97;4.22;;;;;;;;;;5004702;28;20664;-62
2023/06/14 02:39:11;;;;;;;8.32;4.55;;;;;;;;;;4999451;28;20053;-62
2023/06/14 02:41:38;;;;;;;5.47;4.13;;;;;;;;;;4989871;28;20053;-62
2023/06/14 02:44:04;;;;;;;6.97;4.32;;;;;;;;;;5016301;28;20042;-61
2023/06/14 02:46:30;;;;;;;7.35;4.43;;;;;;;;;;5012203;28;20029;-62
2023/06/14 02:48:56;;;;;;;7.10;4.53;;;;;;;;;;5004734;28;20395;-61
2023/06/14 02:51:23;;;;;;;5.10;3.83;;;;;;;;;;5011619;28;20101;-62
2023/06/14 02:53:49;;;;;;;7.15;4.97;;;;;;;;;;5007839;28;20041;-61
2023/06/14 02:56:17;;;;;;;8.38;4.50;;;;;;;;;;5019116;28;20034;-61
2023/06/14 02:58:43;;;;;;;9.50;4.35;;;;;;;;;;5011264;28;20061;-61
2023/06/14 03:01:12;;;;;;;7.78;4.03;;;;;;;;;;5013832;28;20037;-61
2023/06/14 03:03:39;;;;;;;7.93;4.53;;;;;;;;;;5025408;28;20423;-60
2023/06/14 03:06:05;;;;;;;7.00;4.35;;;;;;;;;;5009663;28;20048;-61
2023/06/14 03:08:38;;;;;;;4.82;3.97;;;;;;;;;;5005604;28;20061;-61
2023/06/14 03:11:08;;;;;;;6.35;4.15;;;;;;;;;;5010548;28;20487;-62
2023/06/14 03:13:35;;;;;;;7.68;4.78;;;;;;;;;;5001871;28;20534;-62
2023/06/14 03:16:03;;;;;;;9.20;4.70;;;;;;;;;;5010609;28;20038;-63
2023/06/14 03:18:35;;;;;;;6.82;4.40;;;;;;;;;;5008429;28;20635;-61
2023/06/14 03:21:03;;;;;;;5.95;4.15;;;;;;;;;;5000018;28;20030;-61
2023/06/14 03:23:31;;;;;;;6.18;4.35;;;;;;;;;;4992257;28;20042;-61
2023/06/14 03:25:57;;;;;;;6.07;4.18;;;;;;;;;;5000801;28;20045;-61
2023/06/14 03:28:24;;;;;;;6.20;4.45;;;;;;;;;;4989996;28;20034;-62
2023/06/14 03:30:51;;;;;;;8.70;4.40;;;;;;;;;;5004601;28;20385;-62
2023/06/14 03:33:17;;;;;;;8.38;4.15;;;;;;;;;;5007738;28;20034;-61
2023/06/14 03:35:44;;;;;;;6.78;4.47;;;;;;;;;;5009015;28;20038;-61
2023/06/14 03:38:10;;;;;;;9.35;4.07;;;;;;;;;;4988589;28;20530;-60
2023/06/14 03:40:37;;;;;;;6.80;4.65;;;;;;;;;;4984777;28;20038;-62
2023/06/14 03:43:05;;;;;;;7.25;4.22;;;;;;;;;;5008225;28;20037;-61
2023/06/14 03:45:32;;;;;;;5.03;3.53;;;;;;;;;;5010440;28;20037;-62
2023/06/14 03:48:00;;;;;;;9.27;4.75;;;;;;;;;;4984080;28;20042;-62
2023/06/14 03:50:27;;;;;;;11.18;5.50;;;;;;;;;;4965450;28;20034;-62
2023/06/14 03:52:53;;;;;;;9.80;5.68;;;;;;;;;;5003494;28;20035;-61
2023/06/14 03:55:20;;;;;;;8.95;4.80;;;;;;;;;;5005806;28;20046;-61
2023/06/14 03:57:47;;;;;;;6.55;4.40;;;;;;;;;;5016935;28;20038;-61
2023/06/14 04:00:17;;;;;;;6.88;4.75;;;;;;;;;;5005970;28;20034;-61
2023/06/14 04:02:44;;;;;;;10.05;4.95;;;;;;;;;;5000818;28;20046;-61
2023/06/14 04:05:11;;;;;;;11.32;6.28;;;;;;;;;;5005098;28;20775;-61
2023/06/14 04:07:44;;;;;;;8.43;4.43;;;;;;;;;;5008219;28;20041;-61
2023/06/14 04:10:12;;;;;;;6.70;4.50;;;;;;;;;;5006901;28;20048;-61
2023/06/14 04:12:39;;;;;;;5.95;4.57;;;;;;;;;;4997642;28;20535;-62
2023/06/14 04:15:06;;;;;;;12.02;4.10;;;;;;;;;;5002234;28;20042;-60
2023/06/14 04:17:32;;;;;;;7.57;5.07;;;;;;;;;;4996262;28;20045;-60
2023/06/14 04:19:59;;;;;;;7.63;5.22;;;;;;;;;;5002814;28;20038;-59
2023/06/14 04:22:30;;;;;;;8.43;5.10;;;;;;;;;;4990027;28;20042;-59
2023/06/14 04:24:59;;;;;;;6.78;4.72;;;;;;;;;;5011187;28;20049;-60
2023/06/14 04:27:27;;;;;;;7.15;5.10;;;;;;;;;;4995388;28;20054;-60
2023/06/14 04:29:59;;;;;;;8.55;4.60;;;;;;;;;;5008109;28;20030;-60
2023/06/14 04:32:38;;;;;;;7.30;4.38;;;;;;;;;;5000091;28;20049;-62
2023/06/14 04:35:07;;;;;;;10.93;5.00;;;;;;;;;;5007579;28;20038;-61
2023/06/14 04:37:34;;;;;;;8.82;4.95;;;;;;;;;;5013847;28;20044;-61
2023/06/14 04:40:01;;;;;;;10.80;5.07;;;;;;;;;;5013950;28;20037;-61
2023/06/14 04:42:30;;;;;;;9.48;5.43;;;;;;;;;;5015986;28;20033;-60
2023/06/14 04:44:58;;;;;;;8.32;5.00;;;;;;;;;;5011470;28;20034;-61
2023/06/14 04:47:29;;;;;;;7.57;4.70;;;;;;;;;;5010603;28;20064;-61
2023/06/14 04:49:57;;;;;;;10.68;5.03;;;;;;;;;;5010011;28;20042;-61
2023/06/14 04:52:26;;;;;;;8.55;4.82;;;;;;;;;;5013333;28;20033;-64
2023/06/14 04:54:54;;;;;;;9.80;5.00;;;;;;;;;;5024706;28;20363;-61
2023/06/14 04:57:22;;;;;;;6.38;4.65;;;;;;;;;;5006396;28;20095;-61
2023/06/14 04:59:54;;;;;;;9.45;5.18;;;;;;;;;;5009449;28;20050;-60
2023/06/14 05:02:25;;;;;;;9.32;5.35;;;;;;;;;;5002979;28;20049;-60
2023/06/14 05:04:52;;;;;;;9.80;5.65;;;;;;;;;;5006113;28;20037;-60
2023/06/14 05:07:19;;;;;;;7.95;5.40;;;;;;;;;;4985013;28;20053;-60
2023/06/14 05:09:47;;;;;;;9.98;5.45;;;;;;;;;;4995597;28;20542;-60
2023/06/14 05:12:13;;;;;;;7.55;5.15;;;;;;;;;;4991222;28;20037;-61
2023/06/14 05:14:39;;;;;;;9.02;5.18;;;;;;;;;;4997425;28;20049;-60
2023/06/14 05:17:07;;;;;;;7.78;5.40;;;;;;;;;;4983438;28;20407;-61
2023/06/14 05:19:33;;;;;;;9.82;6.20;;;;;;;;;;5000885;28;20403;-60
2023/06/14 05:21:59;;;;;;;8.43;5.65;;;;;;;;;;5002007;28;20372;-60
2023/06/14 05:24:25;;;;;;;10.18;6.75;;;;;;;;;;4998014;28;20046;-60
2023/06/14 05:26:51;;;;;;;12.15;7.20;;;;;;;;;;4997307;28;20030;-60
2023/06/14 05:29:17;;;;;;;10.90;7.35;;;;;;;;;;5000942;28;20480;-60
2023/06/14 05:31:44;;;;;;;21.33;8.32;;;;;;;;;;5003481;28;20050;-59
2023/06/14 05:34:10;;;;;;;11.23;7.32;;;;;;;;;;5002162;28;20042;-59
2023/06/14 05:36:37;;;;;;;12.50;6.80;;;;;;;;;;4999563;28;20036;-59
2023/06/14 05:39:04;;;;;;;9.65;6.57;;;;;;;;;;5006975;28;20038;-59
2023/06/14 05:41:30;;;;;;;9.23;7.30;;;;;;;;;;5002124;28;20515;-60
2023/06/14 05:43:57;;;;;;;10.25;6.55;;;;;;;;;;5009616;28;20087;-59
2023/06/14 05:46:26;;;;;;;12.85;6.60;;;;;;;;;;5000080;28;20053;-60
2023/06/14 05:48:53;;;;;;;;;;;;;;;;;;5005441;28;20419;-60
2023/06/14 05:51:19;;;;;;;12.80;7.07;;;;;;;;;;5012935;28;19920;-59
2023/06/14 05:53:46;;;;;;;10.90;7.03;;;;;;;;;;4998385;28;20042;-60
2023/06/14 05:56:13;;;;;;;10.75;6.72;;;;;;;;;;5003486;28;20037;-60
2023/06/14 05:58:39;;;;;;;11.20;7.30;;;;;;;;;;5001947;28;20045;-61
2023/06/14 06:01:06;;;;;;;11.45;6.78;;;;;;;;;;5007652;28;20045;-61
2023/06/14 06:03:32;;;;;;;9.98;6.40;;;;;;;;;;5007364;28;20041;-60
2023/06/14 06:05:59;;;;;;;10.30;6.70;;;;;;;;;;5005938;28;20053;-60
2023/06/14 06:08:26;;;;;;;9.75;6.40;;;;;;;;;;4994872;28;20037;-60
2023/06/14 06:10:52;;;;;;;9.93;6.63;;;;;;;;;;5002413;28;20046;-61
2023/06/14 06:13:19;;;;;;;9.32;6.53;;;;;;;;;;5002154;28;20033;-61
2023/06/14 06:15:45;;;;;;;9.88;6.55;;;;;;;;;;5011390;28;20053;-61
2023/06/14 06:18:11;;;;;;;8.23;6.38;;;;;;;;;;5008306;28;20399;-60
2023/06/14 06:20:38;;;;;;;9.50;6.25;;;;;;;;;;5008049;28;20048;-61
2023/06/14 06:23:04;;;;;;;10.18;5.90;;;;;;;;;;5019464;28;20407;-60
2023/06/14 06:25:31;;;;;;;11.00;6.10;;;;;;;;;;5009999;28;20030;-61
2023/06/14 06:27:58;;;;;;;9.73;6.82;;;;;;;;;;5004775;28;20045;-61
2023/06/14 06:30:25;;;;;;;10.95;6.60;;;;;;;;;;5000060;28;20030;-61
2023/06/14 06:32:51;;;;;;;10.48;6.50;;;;;;;;;;5005060;28;20030;-60
2023/06/14 06:35:17;;;;;;;8.02;6.18;;;;;;;;;;5001312;28;20396;-61
2023/06/14 06:37:44;;;;;;;8.55;6.18;;;;;;;;;;5013081;28;20483;-61
2023/06/14 06:40:10;;;;;;;11.50;6.30;;;;;;;;;;5009916;28;20037;-60
2023/06/14 06:42:36;;;;;;;8.13;6.43;;;;;;;;;;5004263;28;20041;-59
2023/06/14 06:45:05;;;;;;;8.65;6.22;;;;;;;;;;5017765;28;20046;-61
2023/06/14 06:47:32;;;;;;;9.15;6.38;;;;;;;;;;5007943;28;20037;-61
2023/06/14 06:49:58;;;;;;;8.32;5.93;;;;;;;;;;5007933;28;20046;-59
2023/06/14 06:52:24;;;;;;;12.82;6.20;;;;;;;;;;4999228;28;20134;-60
2023/06/14 06:54:54;;;;;;;11.30;6.22;;;;;;;;;;5010900;28;20388;-61
2023/06/14 06:57:22;;;;;;;11.10;7.35;;;;;;;;;;5007625;28;20399;-61
2023/06/14 06:59:49;;;;;;;13.32;6.20;;;;;;;;;;5007926;28;20030;-60
2023/06/14 07:02:16;;;;;;;9.77;6.40;;;;;;;;;;5003834;28;20064;-61
2023/06/14 07:04:42;;;;;;;13.90;6.40;;;;;;;;;;5016792;28;20045;-61
2023/06/14 07:07:09;;;;;;;9.40;6.55;;;;;;;;;;5004202;28;20392;-61
2023/06/14 07:09:36;;;;;;;7.97;6.07;;;;;;;;;;5007746;28;20057;-61
2023/06/14 07:12:02;;;;;;;8.98;6.38;;;;;;;;;;5001367;28;20037;-61
2023/06/14 07:14:30;;;;;;;10.05;5.97;;;;;;;;;;5005379;28;21944;-61
2023/06/14 07:16:56;;;;;;;7.47;5.43;;;;;;;;;;5000035;28;20636;-61
2023/06/14 07:19:22;;;;;;;9.38;6.03;;;;;;;;;;5002824;28;20022;-61
2023/06/14 07:21:48;;;;;;;12.43;5.95;;;;;;;;;;5005907;28;20044;-61
2023/06/14 07:24:15;;;;;;;9.93;6.15;;;;;;;;;;4999847;28;20053;-61
2023/06/14 07:26:41;;;;;;;6.70;5.45;;;;;;;;;;4998962;28;20416;-61
2023/06/14 07:29:07;;;;;;;10.70;5.57;;;;;;;;;;5006613;28;20040;-61
2023/06/14 07:31:33;;;;;;;8.73;5.50;;;;;;;;;;5007800;28;20538;-61
2023/06/14 07:33:59;;;;;;;10.35;6.38;;;;;;;;;;5010161;28;20031;-61
2023/06/14 07:36:25;;;;;;;10.45;5.85;;;;;;;;;;4998390;28;20049;-61
2023/06/14 07:38:52;;;;;;;8.48;6.20;;;;;;;;;;5005902;28;20034;-61
2023/06/14 07:41:18;;;;;;;10.77;5.72;;;;;;;;;;5002648;28;20033;-61
2023/06/14 07:43:44;;;;;;;11.80;6.47;;;;;;;;;;5016095;28;20041;-61
2023/06/14 07:46:11;;;;;;;9.32;6.32;;;;;;;;;;5006065;28;20038;-60
2023/06/14 07:48:37;;;;;;;8.13;6.45;;;;;;;;;;5005466;28;20045;-61
2023/06/14 07:51:03;;;;;;;10.27;6.70;;;;;;;;;;4999904;28;20064;-60
2023/06/14 07:53:30;;;;;;;7.55;6.32;;;;;;;;;;5003932;28;20037;-60
2023/06/14 07:55:57;;;;;;;8.45;5.95;;;;;;;;;;4996561;28;20045;-60
2023/06/14 07:58:23;;;;;;;7.35;6.22;;;;;;;;;;5006967;28;20053;-61
2023/06/14 08:00:49;;;;;;;10.73;7.57;;;;;;;;;;5005986;28;20034;-60
2023/06/14 08:03:15;;;;;;;8.18;6.35;;;;;;;;;;5004195;28;20045;-60
2023/06/14 08:05:42;;;;;;;13.30;6.70;;;;;;;;;;5006477;28;20515;-60
2023/06/14 08:08:08;;;;;;;10.27;6.47;;;;;;;;;;5007941;28;20030;-60
2023/06/14 08:10:34;;;;;;;7.22;6.40;;;;;;;;;;5007468;28;20042;-60
2023/06/14 08:13:00;;;;;;;8.02;6.00;;;;;;;;;;4995103;28;20492;-60
2023/06/14 08:15:26;;;;;;;7.90;6.15;;;;;;;;;;5005969;28;20029;-61
2023/06/14 08:17:53;;;;;;;9.82;6.60;;;;;;;;;;5002611;28;20034;-61
2023/06/14 08:20:19;;;;;;;11.70;6.38;;;;;;;;;;5007948;28;20037;-60
2023/06/14 08:22:46;;;;;;;14.27;6.90;;;;;;;;;;5006606;28;20049;-61
2023/06/14 08:25:13;;;;;;;9.18;6.30;;;;;;;;;;4995479;28;20038;-60
2023/06/14 08:27:39;;;;;;;10.23;6.40;;;;;;;;;;4993945;28;20156;-60
2023/06/14 08:30:08;;;;;;;8.30;5.97;;;;;;;;;;5006638;28;20046;-59
2023/06/14 08:32:34;;;;;;;10.43;6.07;;;;;;;;;;5012667;28;20414;-60
2023/06/14 08:35:00;;;;;;;8.82;5.63;;;;;;;;;;5014669;28;20037;-59
2023/06/14 08:37:26;;;;;;;15.32;6.53;;;;;;;;;;5001342;28;20044;-60
2023/06/14 08:39:53;;;;;;;8.07;5.60;;;;;;;;;;5013892;28;20033;-62
2023/06/14 08:42:22;;;;;;;7.38;6.03;;;;;;;;;;5006716;28;20136;-61
2023/06/14 08:44:49;;;;;;;7.43;5.57;;;;;;;;;;5009725;28;20034;-61
2023/06/14 08:47:17;;;;;;;9.05;5.40;;;;;;;;;;5013147;28;20038;-61
2023/06/14 08:49:48;;;;;;;5.70;5.10;;;;;;;;;;5012131;28;20638;-61
2023/06/14 08:52:18;;;;;;;8.55;5.10;;;;;;;;;;5012887;28;20030;-61
2023/06/14 08:54:45;;;;;;;10.02;5.03;;;;;;;;;;5006876;28;20041;-61
2023/06/14 08:57:15;;;;;;;9.02;5.50;;;;;;;;;;5011357;28;20038;-61
2023/06/14 08:59:46;;;;;;;9.43;5.57;;;;;;;;;;5011777;28;20053;-61
2023/06/14 09:02:13;;;;;;;10.05;5.15;;;;;;;;;;5008463;28;20053;-61
2023/06/14 09:04:39;;;;;;;7.20;5.57;;;;;;;;;;5001328;28;20058;-61
2023/06/14 09:07:06;;;;;;;5.90;5.03;;;;;;;;;;5005463;28;20042;-62
2023/06/14 09:09:34;;;;;;;8.75;4.72;;;;;;;;;;4993950;28;20030;-61
2023/06/14 09:12:00;;;;;;;7.05;5.70;;;;;;;;;;4999510;28;20054;-60
2023/06/14 09:14:26;;;;;;;6.75;5.22;;;;;;;;;;5006058;28;20029;-59
2023/06/14 09:16:54;;;;;;;7.60;5.38;;;;;;;;;;5002040;28;20046;-60
2023/06/14 09:19:24;;;;;;;7.20;5.40;;;;;;;;;;5000638;28;20042;-61
2023/06/14 09:21:52;;;;;;;8.93;4.95;;;;;;;;;;5001616;28;20045;-61
2023/06/14 09:24:19;;;;;;;8.73;5.40;;;;;;;;;;5002133;28;20065;-61
2023/06/14 09:26:50;;;;;;;8.15;5.05;;;;;;;;;;4992852;28;20050;-63
2023/06/14 09:29:17;;;;;;;8.35;5.10;;;;;;;;;;5001480;28;20431;-62
2023/06/14 09:31:47;;;;;;;7.32;5.05;;;;;;;;;;5005055;28;20038;-60
2023/06/14 09:34:13;;;;;;;;;;;;;;;;;;4997191;28;20030;-61
2023/06/14 09:36:43;;;;;;;5.80;5.18;;;;;;;;;;5003117;28;20374;-62
2023/06/14 09:39:09;;;;;;;5.22;4.70;;;;;;;;;;5003899;28;20041;-61
2023/06/14 09:41:36;;;;;;;9.43;5.40;;;;;;;;;;5004904;28;20476;-61
2023/06/14 09:44:10;;;;;;;7.55;5.30;;;;;;;;;;5011032;28;20635;-62
2023/06/14 09:46:37;;;;;;;9.57;5.28;;;;;;;;;;5008111;28;20050;-61
2023/06/14 09:49:05;;;;;;;6.20;4.90;;;;;;;;;;4998895;28;20053;-61
2023/06/14 09:51:31;;;;;;;5.50;4.80;;;;;;;;;;5000839;28;20038;-61
2023/06/14 09:54:04;;;;;;;8.15;5.22;;;;;;;;;;5000908;28;20049;-61
2023/06/14 09:56:40;;;;;;;6.57;5.55;;;;;;;;;;4998322;28;20038;-62
2023/06/14 09:59:09;;;;;;;6.25;5.15;;;;;;;;;;4997105;28;20025;-61
2023/06/14 10:01:42;;;;;;;8.20;5.10;;;;;;;;;;4999957;28;20041;-60
2023/06/14 10:04:10;;;;;;;8.05;5.20;;;;;;;;;;5008352;28;20038;-61
2023/06/14 10:06:39;;;;;;;10.13;5.15;;;;;;;;;;5000497;28;20038;-62
2023/06/14 10:09:08;;;;;;;9.95;5.20;;;;;;;;;;4984733;28;20046;-62
2023/06/14 10:11:35;;;;;;;5.38;4.88;;;;;;;;;;5014806;28;20051;-62
2023/06/14 10:14:05;;;;;;;6.10;5.28;;;;;;;;;;4994948;28;20053;-61
2023/06/14 10:16:32;;;;;;;7.55;5.00;;;;;;;;;;5000494;28;20504;-62
2023/06/14 10:19:22;;;;;;;7.45;5.05;;;;;;;;;;5005319;28;20049;-62
2023/06/14 10:22:07;;;;;;;6.95;4.80;;;;;;;;;;5013987;28;20535;-62
2023/06/14 10:24:40;;;;;;;6.15;4.80;;;;;;;;;;5008169;28;20053;-61
2023/06/14 10:27:13;;;;;;;8.20;5.18;;;;;;;;;;4998608;28;20045;-61
2023/06/14 10:30:07;;;;;;;5.70;4.88;;;;;;;;;;5011966;28;20061;-61
2023/06/14 10:32:34;;;;;;;8.45;5.28;;;;;;;;;;5004822;28;20061;-61
2023/06/14 10:35:07;;;;;;;8.30;4.03;;;;;;;;;;5012981;28;20034;-62
2023/06/14 10:37:33;;;;;;;7.07;4.80;;;;;;;;;;5009973;28;20029;-61
2023/06/14 10:39:59;;;;;;;10.43;4.78;;;;;;;;;;5013362;28;20053;-61
2023/06/14 10:42:32;;;;;;;5.60;4.13;;;;;;;;;;5015014;28;20533;-62
2023/06/14 10:45:01;;;;;;;7.75;4.38;;;;;;;;;;5015945;28;20069;-62
2023/06/14 10:47:34;;;;;;;4.93;4.30;;;;;;;;;;5013641;28;20053;-62
2023/06/14 10:50:06;;;;;;;7.82;4.65;;;;;;;;;;5010484;28;20049;-62
2023/06/14 10:52:43;;;;;;;4.78;4.15;;;;;;;;;;5009347;28;20042;-61
2023/06/14 10:55:22;;;;;;;5.88;4.10;;;;;;;;;;5005683;28;20053;-62
2023/06/14 10:57:55;;;;;;;4.80;4.03;;;;;;;;;;5017303;28;20050;-62
2023/06/14 11:00:25;;;;;;;5.70;4.32;;;;;;;;;;5018352;28;20036;-61
2023/06/14 11:03:13;;;;;;;8.38;4.25;;;;;;;;;;5004672;28;20034;-61
2023/06/14 11:05:52;;;;;;;;;;;;;;;;;;5001958;28;20038;-63
2023/06/14 11:08:30;;;;;;;7.18;4.45;;;;;;;;;;5006351;28;19920;-63
2023/06/14 11:11:00;;;;;;;7.70;4.28;;;;;;;;;;5011605;28;21043;-61
2023/06/14 11:13:27;;;;;;;4.75;4.20;;;;;;;;;;5006290;28;20465;-63
2023/06/14 11:15:54;;;;;;;7.45;4.25;;;;;;;;;;5009613;28;20037;-63
2023/06/14 11:18:24;;;;;;;4.87;4.10;;;;;;;;;;5016396;28;20034;-62
2023/06/14 11:20:50;;;;;;;5.85;4.68;;;;;;;;;;5001780;28;20507;-63
2023/06/14 11:23:16;;;;;;;6.22;4.40;;;;;;;;;;5006745;28;20036;-64
2023/06/14 11:25:43;;;;;;;7.55;5.05;;;;;;;;;;5002339;28;20046;-62
2023/06/14 11:28:09;;;;;;;8.88;4.82;;;;;;;;;;5006507;28;20038;-64
2023/06/14 11:30:36;;;;;;;7.22;4.88;;;;;;;;;;5005708;28;20036;-64
2023/06/14 11:33:02;;;;;;;5.55;4.43;;;;;;;;;;5007834;28;20030;-62
2023/06/14 11:35:28;;;;;;;8.27;4.97;;;;;;;;;;5007927;28;20572;-63
2023/06/14 11:37:57;;;;;;;5.82;4.45;;;;;;;;;;5001369;28;20034;-63
2023/06/14 11:40:25;;;;;;;7.80;4.63;;;;;;;;;;5002030;28;20042;-63
2023/06/14 11:42:59;;;;;;;5.82;5.05;;;;;;;;;;5014276;28;20038;-62
2023/06/14 11:45:25;;;;;;;7.05;4.50;;;;;;;;;;5002430;28;20503;-62
2023/06/14 11:47:54;;;;;;;5.38;4.63;;;;;;;;;;5004162;28;20046;-61
2023/06/14 11:50:21;;;;;;;6.88;4.75;;;;;;;;;;5006807;28;20046;-62
2023/06/14 11:52:53;;;;;;;7.65;4.60;;;;;;;;;;5002431;28;20046;-62
2023/06/14 11:55:20;;;;;;;5.03;4.50;;;;;;;;;;4999772;28;20042;-64
2023/06/14 11:57:46;;;;;;;5.90;5.10;;;;;;;;;;4992044;28;20427;-62
2023/06/14 12:00:15;;;;;;;9.20;4.72;;;;;;;;;;5005367;28;20056;-61
2023/06/14 12:02:41;;;;;;;6.15;4.38;;;;;;;;;;4998236;28;20053;-62
2023/06/14 12:05:09;;;;;;;4.95;4.40;;;;;;;;;;5009443;28;20475;-62
2023/06/14 12:07:37;;;;;;;6.05;4.65;;;;;;;;;;5004668;28;20042;-62
2023/06/14 12:10:07;;;;;;;5.65;4.30;;;;;;;;;;4995932;28;20030;-62
2023/06/14 12:12:38;;;;;;;5.40;4.25;;;;;;;;;;5005877;28;20030;-62
2023/06/14 12:15:06;;;;;;;12.80;5.15;;;;;;;;;;5005805;28;20038;-62
2023/06/14 12:17:33;;;;;;;4.80;4.30;;;;;;;;;;5001540;28;20265;-62
2023/06/14 12:20:07;;;;;;;6.70;4.40;;;;;;;;;;5011642;28;20419;-62
2023/06/14 12:22:33;;;;;;;6.85;4.60;;;;;;;;;;5010145;28;20533;-62
2023/06/14 12:25:00;;;;;;;8.02;4.22;;;;;;;;;;5009965;28;20044;-64
2023/06/14 12:27:28;;;;;;;5.40;4.40;;;;;;;;;;5000642;28;20054;-63
2023/06/14 12:30:02;;;;;;;7.10;4.80;;;;;;;;;;5005074;28;20041;-62
2023/06/14 12:32:29;;;;;;;7.03;4.50;;;;;;;;;;5003709;28;20513;-61
2023/06/14 12:34:55;;;;;;;6.50;4.45;;;;;;;;;;5015541;28;20033;-62
2023/06/14 12:37:22;;;;;;;5.72;4.40;;;;;;;;;;5014906;28;20049;-63
2023/06/14 12:39:48;;;;;;;5.60;3.97;;;;;;;;;;5012112;28;20054;-63
2023/06/14 12:42:14;;;;;;;5.65;4.43;;;;;;;;;;5007044;28;20076;-62
2023/06/14 12:44:41;;;;;;;6.03;4.97;;;;;;;;;;5003790;28;20057;-63
2023/06/14 12:47:07;;;;;;;7.63;4.82;;;;;;;;;;4999654;28;20112;-64
2023/06/14 12:49:33;;;;;;;5.40;4.32;;;;;;;;;;4995331;28;20101;-63
2023/06/14 12:51:59;;;;;;;4.35;3.95;;;;;;;;;;4997491;28;20716;-63
2023/06/14 12:54:26;;;;;;;5.43;4.30;;;;;;;;;;5015319;28;20048;-63
2023/06/14 12:56:53;;;;;;;4.78;4.28;;;;;;;;;;5015428;28;20041;-63
2023/06/14 12:59:19;;;;;;;5.60;4.80;;;;;;;;;;5013454;28;20423;-63
2023/06/14 13:01:47;;;;;;;8.65;4.55;;;;;;;;;;5008309;28;20035;-63
2023/06/14 13:04:13;;;;;;;5.10;4.25;;;;;;;;;;5006005;28;20483;-62
2023/06/14 13:06:39;;;;;;;7.10;4.20;;;;;;;;;;5001102;28;20034;-63
2023/06/14 13:09:05;;;;;;;7.35;4.50;;;;;;;;;;5009441;28;20041;-63
2023/06/14 13:11:31;;;;;;;4.60;4.20;;;;;;;;;;5009618;28;20037;-63
2023/06/14 13:13:58;;;;;;;8.80;4.38;;;;;;;;;;5012835;28;20045;-62
2023/06/14 13:16:24;;;;;;;5.30;4.53;;;;;;;;;;4999914;28;20030;-63
2023/06/14 13:18:50;;;;;;;6.95;4.55;;;;;;;;;;5006146;28;20039;-63
2023/06/14 13:21:16;;;;;;;4.57;4.18;;;;;;;;;;5000774;28;20038;-63
2023/06/14 13:23:42;;;;;;;9.77;4.40;;;;;;;;;;5000031;28;20050;-65
2023/06/14 13:26:08;;;;;;;7.07;4.97;;;;;;;;;;5009333;28;20050;-63
2023/06/14 13:28:35;;;;;;;6.22;4.78;;;;;;;;;;5001783;28;20034;-63
2023/06/14 13:31:01;;;;;;;6.78;4.20;;;;;;;;;;5007935;28;20399;-63
2023/06/14 13:33:28;;;;;;;7.10;4.78;;;;;;;;;;5011772;28;20044;-63
2023/06/14 13:35:54;;;;;;;6.43;4.60;;;;;;;;;;5004471;28;20034;-64
2023/06/14 13:38:20;;;;;;;5.18;4.68;;;;;;;;;;5000540;28;20030;-63
2023/06/14 13:40:46;;;;;;;7.53;4.75;;;;;;;;;;5002359;28;20049;-64
2023/06/14 13:43:12;;;;;;;6.70;4.55;;;;;;;;;;5007960;28;20044;-64
2023/06/14 13:45:38;;;;;;;6.20;4.28;;;;;;;;;;5003744;28;20137;-64
2023/06/14 13:48:05;;;;;;;5.63;4.20;;;;;;;;;;5006509;28;20038;-65
2023/06/14 13:50:31;;;;;;;8.00;4.40;;;;;;;;;;5004925;28;20034;-64
2023/06/14 13:52:57;;;;;;;5.95;4.68;;;;;;;;;;5003599;28;20049;-64
2023/06/14 13:55:24;;;;;;;5.93;4.80;;;;;;;;;;4996995;28;20050;-63
2023/06/14 13:57:50;;;;;;;6.10;4.43;;;;;;;;;;4992886;28;20050;-63
2023/06/14 14:00:17;;;;;;;6.75;4.57;;;;;;;;;;4994402;28;20506;-63
2023/06/14 14:02:43;;;;;;;6.97;4.65;;;;;;;;;;4997379;28;20038;-63
2023/06/14 14:05:09;;;;;;;7.07;4.85;;;;;;;;;;4994324;28;20039;-63
2023/06/14 14:07:36;;;;;;;7.13;4.20;;;;;;;;;;4995234;28;20042;-63
2023/06/14 14:10:02;;;;;;;6.80;4.75;;;;;;;;;;5000276;28;20045;-64
2023/06/14 14:12:28;;;;;;;5.50;4.45;;;;;;;;;;5003180;28;20046;-63
2023/06/14 14:14:54;;;;;;;5.75;4.30;;;;;;;;;;4995589;28;20526;-64
2023/06/14 14:17:21;;;;;;;5.78;4.57;;;;;;;;;;4997504;28;20491;-65
2023/06/14 14:19:47;;;;;;;5.45;4.80;;;;;;;;;;5001059;28;20556;-63
2023/06/14 14:22:13;;;;;;;6.93;5.10;;;;;;;;;;5001992;28;20651;-64
2023/06/14 14:24:39;;;;;;;6.28;4.82;;;;;;;;;;5002395;28;20057;-64
2023/06/14 14:27:06;;;;;;;5.75;4.38;;;;;;;;;;4996120;28;20520;-64
2023/06/14 14:29:32;;;;;;;6.78;5.07;;;;;;;;;;5002008;28;20046;-64
2023/06/14 14:31:58;;;;;;;5.63;4.78;;;;;;;;;;5013401;28;20045;-63
2023/06/14 14:34:25;;;;;;;7.82;4.72;;;;;;;;;;5020153;28;20033;-63
2023/06/14 14:36:51;;;;;;;7.97;4.63;;;;;;;;;;5006211;28;20550;-63
2023/06/14 14:39:17;;;;;;;8.35;5.03;;;;;;;;;;5017275;28;20550;-64
2023/06/14 14:41:43;;;;;;;9.75;4.85;;;;;;;;;;5008033;28;20045;-63
2023/06/14 14:44:09;;;;;;;6.32;4.90;;;;;;;;;;5017994;28;20440;-66
2023/06/14 14:46:35;;;;;;;6.15;4.22;;;;;;;;;;5006207;28;20041;-66